sensor_id;sensor_type;location;lat;lon;timestamp;P1;durP1;ratioP1;P2;durP2;ratioP2
44985;SDS011;30721;49.380;7.736;2023-04-15T00:01:54;1.67;;;0.70;;
44985;SDS011;30721;49.380;7.736;2023-04-15T00:04:22;1.00;;;0.60;;
44985;SDS011;30721;49.380;7.736;2023-04-15T00:06:51;2.22;;;0.93;;
44985;SDS011;30721;49.380;7.736;2023-04-15T00:09:17;2.10;;;0.57;;
44985;SDS011;30721;49.380;7.736;2023-04-15T00:11:43;5.47;;;0.82;;
44985;SDS011;30721;49.380;7.736;2023-04-15T00:14:10;2.03;;;0.45;;
44985;SDS011;30721;49.380;7.736;2023-04-15T00:16:36;2.30;;;0.65;;
44985;SDS011;30721;49.380;7.736;2023-04-15T00:19:02;3.10;;;0.60;;
44985;SDS011;30721;49.380;7.736;2023-04-15T00:21:29;2.55;;;0.70;;
44985;SDS011;30721;49.380;7.736;2023-04-15T00:23:55;2.75;;;1.20;;
44985;SDS011;30721;49.380;7.736;2023-04-15T00:26:20;1.85;;;0.63;;
44985;SDS011;30721;49.380;7.736;2023-04-15T00:28:46;3.30;;;0.98;;
44985;SDS011;30721;49.380;7.736;2023-04-15T00:31:11;2.63;;;0.93;;
44985;SDS011;30721;49.380;7.736;2023-04-15T00:33:37;3.38;;;0.70;;
44985;SDS011;30721;49.380;7.736;2023-04-15T00:36:03;1.65;;;0.68;;
44985;SDS011;30721;49.380;7.736;2023-04-15T00:38:29;1.95;;;0.70;;
44985;SDS011;30721;49.380;7.736;2023-04-15T00:40:55;1.40;;;0.60;;
44985;SDS011;30721;49.380;7.736;2023-04-15T00:43:21;1.15;;;0.73;;
44985;SDS011;30721;49.380;7.736;2023-04-15T00:45:46;1.88;;;0.65;;
44985;SDS011;30721;49.380;7.736;2023-04-15T00:48:12;1.20;;;0.68;;
44985;SDS011;30721;49.380;7.736;2023-04-15T00:50:37;2.25;;;0.98;;
44985;SDS011;30721;49.380;7.736;2023-04-15T00:53:03;2.28;;;0.75;;
44985;SDS011;30721;49.380;7.736;2023-04-15T00:55:28;2.30;;;0.70;;
44985;SDS011;30721;49.380;7.736;2023-04-15T00:57:55;2.08;;;0.70;;
44985;SDS011;30721;49.380;7.736;2023-04-15T01:00:21;1.63;;;0.65;;
44985;SDS011;30721;49.380;7.736;2023-04-15T01:02:47;3.83;;;1.48;;
44985;SDS011;30721;49.380;7.736;2023-04-15T01:05:13;2.25;;;0.50;;
44985;SDS011;30721;49.380;7.736;2023-04-15T01:07:41;3.63;;;1.10;;
44985;SDS011;30721;49.380;7.736;2023-04-15T01:10:07;1.83;;;1.00;;
44985;SDS011;30721;49.380;7.736;2023-04-15T01:12:33;3.42;;;1.42;;
44985;SDS011;30721;49.380;7.736;2023-04-15T01:14:59;3.00;;;1.20;;
44985;SDS011;30721;49.380;7.736;2023-04-15T01:17:25;1.95;;;0.73;;
44985;SDS011;30721;49.380;7.736;2023-04-15T01:19:50;1.77;;;0.80;;
44985;SDS011;30721;49.380;7.736;2023-04-15T01:22:16;2.08;;;0.80;;
44985;SDS011;30721;49.380;7.736;2023-04-15T01:24:43;2.50;;;0.68;;
44985;SDS011;30721;49.380;7.736;2023-04-15T01:27:26;2.30;;;0.57;;
44985;SDS011;30721;49.380;7.736;2023-04-15T01:29:51;1.95;;;0.73;;
44985;SDS011;30721;49.380;7.736;2023-04-15T01:32:18;2.65;;;0.50;;
44985;SDS011;30721;49.380;7.736;2023-04-15T01:34:43;1.05;;;0.57;;
44985;SDS011;30721;49.380;7.736;2023-04-15T01:37:08;1.83;;;0.93;;
44985;SDS011;30721;49.380;7.736;2023-04-15T01:39:34;2.13;;;0.82;;
44985;SDS011;30721;49.380;7.736;2023-04-15T01:41:59;1.85;;;0.90;;
44985;SDS011;30721;49.380;7.736;2023-04-15T01:44:24;1.65;;;1.02;;
44985;SDS011;30721;49.380;7.736;2023-04-15T01:46:50;2.22;;;1.20;;
44985;SDS011;30721;49.380;7.736;2023-04-15T01:49:15;2.72;;;1.17;;
44985;SDS011;30721;49.380;7.736;2023-04-15T01:51:41;2.67;;;1.23;;
44985;SDS011;30721;49.380;7.736;2023-04-15T01:54:06;3.45;;;1.02;;
44985;SDS011;30721;49.380;7.736;2023-04-15T01:56:31;2.70;;;0.88;;
44985;SDS011;30721;49.380;7.736;2023-04-15T01:58:57;4.13;;;1.10;;
44985;SDS011;30721;49.380;7.736;2023-04-15T02:01:22;2.25;;;1.23;;
44985;SDS011;30721;49.380;7.736;2023-04-15T02:03:48;2.42;;;1.00;;
44985;SDS011;30721;49.380;7.736;2023-04-15T02:06:14;6.95;;;1.20;;
44985;SDS011;30721;49.380;7.736;2023-04-15T02:08:39;5.38;;;1.10;;
44985;SDS011;30721;49.380;7.736;2023-04-15T02:11:05;5.40;;;0.90;;
44985;SDS011;30721;49.380;7.736;2023-04-15T02:13:30;2.22;;;0.88;;
44985;SDS011;30721;49.380;7.736;2023-04-15T02:15:55;1.95;;;0.82;;
44985;SDS011;30721;49.380;7.736;2023-04-15T02:18:21;3.60;;;1.10;;
44985;SDS011;30721;49.380;7.736;2023-04-15T02:20:46;2.10;;;0.75;;
44985;SDS011;30721;49.380;7.736;2023-04-15T02:23:12;2.60;;;1.15;;
44985;SDS011;30721;49.380;7.736;2023-04-15T02:25:38;3.88;;;1.50;;
44985;SDS011;30721;49.380;7.736;2023-04-15T02:28:04;4.85;;;1.13;;
44985;SDS011;30721;49.380;7.736;2023-04-15T02:30:30;5.00;;;1.42;;
44985;SDS011;30721;49.380;7.736;2023-04-15T02:32:56;4.47;;;1.30;;
44985;SDS011;30721;49.380;7.736;2023-04-15T02:35:21;2.45;;;1.33;;
44985;SDS011;30721;49.380;7.736;2023-04-15T02:37:49;2.65;;;1.20;;
44985;SDS011;30721;49.380;7.736;2023-04-15T02:40:15;4.07;;;1.40;;
44985;SDS011;30721;49.380;7.736;2023-04-15T02:42:41;3.88;;;1.10;;
44985;SDS011;30721;49.380;7.736;2023-04-15T02:45:08;2.20;;;1.15;;
44985;SDS011;30721;49.380;7.736;2023-04-15T02:47:36;2.40;;;1.45;;
44985;SDS011;30721;49.380;7.736;2023-04-15T02:50:02;3.17;;;1.00;;
44985;SDS011;30721;49.380;7.736;2023-04-15T02:52:28;2.55;;;1.15;;
44985;SDS011;30721;49.380;7.736;2023-04-15T02:54:53;1.88;;;0.65;;
44985;SDS011;30721;49.380;7.736;2023-04-15T02:57:24;3.03;;;0.85;;
44985;SDS011;30721;49.380;7.736;2023-04-15T02:59:50;1.95;;;0.90;;
44985;SDS011;30721;49.380;7.736;2023-04-15T03:02:15;4.60;;;0.95;;
44985;SDS011;30721;49.380;7.736;2023-04-15T03:04:41;1.70;;;0.70;;
44985;SDS011;30721;49.380;7.736;2023-04-15T03:07:06;1.45;;;0.65;;
44985;SDS011;30721;49.380;7.736;2023-04-15T03:09:31;2.10;;;0.80;;
44985;SDS011;30721;49.380;7.736;2023-04-15T03:11:57;3.33;;;1.05;;
44985;SDS011;30721;49.380;7.736;2023-04-15T03:14:22;2.05;;;0.88;;
44985;SDS011;30721;49.380;7.736;2023-04-15T03:16:47;1.42;;;0.82;;
44985;SDS011;30721;49.380;7.736;2023-04-15T03:19:14;1.70;;;0.70;;
44985;SDS011;30721;49.380;7.736;2023-04-15T03:21:40;2.15;;;1.20;;
44985;SDS011;30721;49.380;7.736;2023-04-15T03:24:05;2.15;;;0.75;;
44985;SDS011;30721;49.380;7.736;2023-04-15T03:26:30;1.40;;;0.70;;
44985;SDS011;30721;49.380;7.736;2023-04-15T03:28:56;1.40;;;0.68;;
44985;SDS011;30721;49.380;7.736;2023-04-15T03:31:22;2.78;;;0.70;;
44985;SDS011;30721;49.380;7.736;2023-04-15T03:33:47;4.80;;;1.17;;
44985;SDS011;30721;49.380;7.736;2023-04-15T03:36:13;1.17;;;0.70;;
44985;SDS011;30721;49.380;7.736;2023-04-15T03:38:38;3.47;;;1.00;;
44985;SDS011;30721;49.380;7.736;2023-04-15T03:41:03;2.97;;;1.13;;
44985;SDS011;30721;49.380;7.736;2023-04-15T03:43:29;2.17;;;0.90;;
44985;SDS011;30721;49.380;7.736;2023-04-15T03:45:55;1.90;;;0.80;;
44985;SDS011;30721;49.380;7.736;2023-04-15T03:48:20;2.50;;;0.82;;
44985;SDS011;30721;49.380;7.736;2023-04-15T03:50:46;1.55;;;0.77;;
44985;SDS011;30721;49.380;7.736;2023-04-15T03:53:11;3.60;;;0.80;;
44985;SDS011;30721;49.380;7.736;2023-04-15T03:55:36;1.23;;;0.73;;
44985;SDS011;30721;49.380;7.736;2023-04-15T03:58:02;1.75;;;0.68;;
44985;SDS011;30721;49.380;7.736;2023-04-15T04:00:27;2.88;;;0.93;;
44985;SDS011;30721;49.380;7.736;2023-04-15T04:02:53;1.95;;;0.80;;
44985;SDS011;30721;49.380;7.736;2023-04-15T04:05:18;2.03;;;0.88;;
44985;SDS011;30721;49.380;7.736;2023-04-15T04:07:43;1.83;;;0.95;;
44985;SDS011;30721;49.380;7.736;2023-04-15T04:10:09;2.38;;;1.15;;
44985;SDS011;30721;49.380;7.736;2023-04-15T04:12:34;2.63;;;0.60;;
44985;SDS011;30721;49.380;7.736;2023-04-15T04:15:00;2.63;;;1.38;;
44985;SDS011;30721;49.380;7.736;2023-04-15T04:17:25;2.00;;;0.73;;
44985;SDS011;30721;49.380;7.736;2023-04-15T04:19:51;2.30;;;1.08;;
44985;SDS011;30721;49.380;7.736;2023-04-15T04:22:16;2.47;;;0.77;;
44985;SDS011;30721;49.380;7.736;2023-04-15T04:24:41;2.97;;;0.80;;
44985;SDS011;30721;49.380;7.736;2023-04-15T04:27:07;2.15;;;0.88;;
44985;SDS011;30721;49.380;7.736;2023-04-15T04:29:32;3.22;;;0.75;;
44985;SDS011;30721;49.380;7.736;2023-04-15T04:31:57;2.78;;;0.90;;
44985;SDS011;30721;49.380;7.736;2023-04-15T04:34:23;1.45;;;0.73;;
44985;SDS011;30721;49.380;7.736;2023-04-15T04:36:48;2.92;;;0.77;;
44985;SDS011;30721;49.380;7.736;2023-04-15T04:39:13;1.95;;;0.95;;
44985;SDS011;30721;49.380;7.736;2023-04-15T04:41:39;5.97;;;2.10;;
44985;SDS011;30721;49.380;7.736;2023-04-15T04:44:07;5.45;;;2.03;;
44985;SDS011;30721;49.380;7.736;2023-04-15T04:46:32;4.00;;;1.88;;
44985;SDS011;30721;49.380;7.736;2023-04-15T04:48:58;8.82;;;5.03;;
44985;SDS011;30721;49.380;7.736;2023-04-15T04:51:23;7.57;;;4.32;;
44985;SDS011;30721;49.380;7.736;2023-04-15T04:53:49;4.97;;;2.60;;
44985;SDS011;30721;49.380;7.736;2023-04-15T04:56:14;6.53;;;3.35;;
44985;SDS011;30721;49.380;7.736;2023-04-15T04:58:40;7.50;;;3.40;;
44985;SDS011;30721;49.380;7.736;2023-04-15T05:01:05;8.98;;;4.32;;
44985;SDS011;30721;49.380;7.736;2023-04-15T05:03:30;6.80;;;3.58;;
44985;SDS011;30721;49.380;7.736;2023-04-15T05:05:56;9.25;;;5.68;;
44985;SDS011;30721;49.380;7.736;2023-04-15T05:08:21;11.00;;;8.50;;
44985;SDS011;30721;49.380;7.736;2023-04-15T05:10:47;11.50;;;7.75;;
44985;SDS011;30721;49.380;7.736;2023-04-15T05:13:12;8.00;;;5.50;;
44985;SDS011;30721;49.380;7.736;2023-04-15T05:15:37;7.22;;;3.80;;
44985;SDS011;30721;49.380;7.736;2023-04-15T05:18:05;7.00;;;3.72;;
44985;SDS011;30721;49.380;7.736;2023-04-15T05:20:31;6.55;;;4.20;;
44985;SDS011;30721;49.380;7.736;2023-04-15T05:22:56;7.15;;;3.72;;
44985;SDS011;30721;49.380;7.736;2023-04-15T05:25:21;4.20;;;3.42;;
44985;SDS011;30721;49.380;7.736;2023-04-15T05:27:47;3.65;;;2.75;;
44985;SDS011;30721;49.380;7.736;2023-04-15T05:30:12;4.18;;;2.33;;
44985;SDS011;30721;49.380;7.736;2023-04-15T05:32:37;3.75;;;1.77;;
44985;SDS011;30721;49.380;7.736;2023-04-15T05:35:03;2.70;;;1.73;;
44985;SDS011;30721;49.380;7.736;2023-04-15T05:37:28;4.65;;;2.08;;
44985;SDS011;30721;49.380;7.736;2023-04-15T05:39:54;3.15;;;1.67;;
44985;SDS011;30721;49.380;7.736;2023-04-15T05:42:20;3.17;;;1.50;;
44985;SDS011;30721;49.380;7.736;2023-04-15T05:44:46;8.82;;;3.63;;
44985;SDS011;30721;49.380;7.736;2023-04-15T05:47:11;5.65;;;3.80;;
44985;SDS011;30721;49.380;7.736;2023-04-15T05:49:36;4.90;;;3.03;;
44985;SDS011;30721;49.380;7.736;2023-04-15T05:52:02;5.72;;;3.00;;
44985;SDS011;30721;49.380;7.736;2023-04-15T05:54:27;4.10;;;1.50;;
44985;SDS011;30721;49.380;7.736;2023-04-15T05:56:53;4.15;;;1.83;;
44985;SDS011;30721;49.380;7.736;2023-04-15T05:59:18;4.63;;;1.58;;
44985;SDS011;30721;49.380;7.736;2023-04-15T06:01:44;1.90;;;1.08;;
44985;SDS011;30721;49.380;7.736;2023-04-15T06:04:09;2.13;;;1.27;;
44985;SDS011;30721;49.380;7.736;2023-04-15T06:06:35;1.52;;;1.00;;
44985;SDS011;30721;49.380;7.736;2023-04-15T06:09:01;3.85;;;1.85;;
44985;SDS011;30721;49.380;7.736;2023-04-15T06:11:26;6.20;;;3.25;;
44985;SDS011;30721;49.380;7.736;2023-04-15T06:13:52;4.75;;;2.63;;
44985;SDS011;30721;49.380;7.736;2023-04-15T06:16:17;4.40;;;1.67;;
44985;SDS011;30721;49.380;7.736;2023-04-15T06:18:42;2.67;;;1.60;;
44985;SDS011;30721;49.380;7.736;2023-04-15T06:21:08;3.00;;;2.00;;
44985;SDS011;30721;49.380;7.736;2023-04-15T06:23:34;5.82;;;3.05;;
44985;SDS011;30721;49.380;7.736;2023-04-15T06:26:00;8.90;;;3.80;;
44985;SDS011;30721;49.380;7.736;2023-04-15T06:28:26;3.53;;;2.63;;
44985;SDS011;30721;49.380;7.736;2023-04-15T06:30:51;4.15;;;2.10;;
44985;SDS011;30721;49.380;7.736;2023-04-15T06:33:17;4.75;;;2.58;;
44985;SDS011;30721;49.380;7.736;2023-04-15T06:35:43;5.00;;;2.50;;
44985;SDS011;30721;49.380;7.736;2023-04-15T06:38:08;4.00;;;2.35;;
44985;SDS011;30721;49.380;7.736;2023-04-15T06:40:33;3.78;;;2.05;;
44985;SDS011;30721;49.380;7.736;2023-04-15T06:42:59;2.42;;;1.45;;
44985;SDS011;30721;49.380;7.736;2023-04-15T06:45:24;3.67;;;1.83;;
44985;SDS011;30721;49.380;7.736;2023-04-15T06:47:50;7.47;;;2.63;;
44985;SDS011;30721;49.380;7.736;2023-04-15T06:50:15;7.38;;;2.58;;
44985;SDS011;30721;49.380;7.736;2023-04-15T06:52:41;12.75;;;3.17;;
44985;SDS011;30721;49.380;7.736;2023-04-15T06:55:07;5.40;;;2.70;;
44985;SDS011;30721;49.380;7.736;2023-04-15T06:57:32;5.68;;;2.15;;
44985;SDS011;30721;49.380;7.736;2023-04-15T06:59:58;6.03;;;2.38;;
44985;SDS011;30721;49.380;7.736;2023-04-15T07:02:23;8.85;;;3.65;;
44985;SDS011;30721;49.380;7.736;2023-04-15T07:04:48;7.03;;;2.35;;
44985;SDS011;30721;49.380;7.736;2023-04-15T07:07:14;12.50;;;4.68;;
44985;SDS011;30721;49.380;7.736;2023-04-15T07:09:40;16.27;;;4.43;;
44985;SDS011;30721;49.380;7.736;2023-04-15T07:12:06;13.18;;;4.53;;
44985;SDS011;30721;49.380;7.736;2023-04-15T07:14:32;6.55;;;2.38;;
44985;SDS011;30721;49.380;7.736;2023-04-15T07:16:57;6.13;;;1.85;;
44985;SDS011;30721;49.380;7.736;2023-04-15T07:19:22;4.10;;;2.17;;
44985;SDS011;30721;49.380;7.736;2023-04-15T07:21:48;3.83;;;1.77;;
44985;SDS011;30721;49.380;7.736;2023-04-15T07:24:13;6.53;;;2.13;;
44985;SDS011;30721;49.380;7.736;2023-04-15T07:26:42;3.97;;;1.83;;
44985;SDS011;30721;49.380;7.736;2023-04-15T07:29:08;2.70;;;1.55;;
44985;SDS011;30721;49.380;7.736;2023-04-15T07:31:34;3.95;;;1.92;;
44985;SDS011;30721;49.380;7.736;2023-04-15T07:34:00;2.47;;;1.40;;
44985;SDS011;30721;49.380;7.736;2023-04-15T07:36:26;2.85;;;1.70;;
44985;SDS011;30721;49.380;7.736;2023-04-15T07:38:53;3.50;;;2.25;;
44985;SDS011;30721;49.380;7.736;2023-04-15T07:41:19;4.60;;;1.60;;
44985;SDS011;30721;49.380;7.736;2023-04-15T07:43:45;2.83;;;1.60;;
44985;SDS011;30721;49.380;7.736;2023-04-15T07:46:12;3.38;;;1.30;;
44985;SDS011;30721;49.380;7.736;2023-04-15T07:48:37;5.35;;;2.05;;
44985;SDS011;30721;49.380;7.736;2023-04-15T07:51:03;4.82;;;1.67;;
44985;SDS011;30721;49.380;7.736;2023-04-15T07:53:28;3.28;;;1.50;;
44985;SDS011;30721;49.380;7.736;2023-04-15T07:55:54;2.63;;;1.67;;
44985;SDS011;30721;49.380;7.736;2023-04-15T07:58:20;2.92;;;2.08;;
44985;SDS011;30721;49.380;7.736;2023-04-15T08:00:45;2.75;;;1.38;;
44985;SDS011;30721;49.380;7.736;2023-04-15T08:03:10;2.08;;;1.10;;
44985;SDS011;30721;49.380;7.736;2023-04-15T08:05:36;4.50;;;1.40;;
44985;SDS011;30721;49.380;7.736;2023-04-15T08:08:01;2.92;;;1.30;;
44985;SDS011;30721;49.380;7.736;2023-04-15T08:10:28;2.90;;;1.40;;
44985;SDS011;30721;49.380;7.736;2023-04-15T08:12:53;3.08;;;1.30;;
44985;SDS011;30721;49.380;7.736;2023-04-15T08:15:19;2.25;;;1.70;;
44985;SDS011;30721;49.380;7.736;2023-04-15T08:17:44;3.20;;;1.33;;
44985;SDS011;30721;49.380;7.736;2023-04-15T08:20:10;2.53;;;1.40;;
44985;SDS011;30721;49.380;7.736;2023-04-15T08:22:37;2.63;;;1.42;;
44985;SDS011;30721;49.380;7.736;2023-04-15T08:25:02;2.45;;;1.52;;
44985;SDS011;30721;49.380;7.736;2023-04-15T08:27:28;2.97;;;1.35;;
44985;SDS011;30721;49.380;7.736;2023-04-15T08:29:55;1.40;;;1.30;;
44985;SDS011;30721;49.380;7.736;2023-04-15T08:32:20;2.28;;;1.20;;
44985;SDS011;30721;49.380;7.736;2023-04-15T08:34:46;2.33;;;1.20;;
44985;SDS011;30721;49.380;7.736;2023-04-15T08:37:12;2.67;;;1.70;;
44985;SDS011;30721;49.380;7.736;2023-04-15T08:39:37;3.88;;;1.42;;
44985;SDS011;30721;49.380;7.736;2023-04-15T08:42:03;2.83;;;1.35;;
44985;SDS011;30721;49.380;7.736;2023-04-15T08:44:36;1.67;;;1.08;;
44985;SDS011;30721;49.380;7.736;2023-04-15T08:47:02;3.20;;;1.05;;
44985;SDS011;30721;49.380;7.736;2023-04-15T08:49:31;2.22;;;1.15;;
44985;SDS011;30721;49.380;7.736;2023-04-15T08:51:57;4.60;;;1.60;;
44985;SDS011;30721;49.380;7.736;2023-04-15T08:54:23;2.47;;;1.20;;
44985;SDS011;30721;49.380;7.736;2023-04-15T08:56:49;3.15;;;1.25;;
44985;SDS011;30721;49.380;7.736;2023-04-15T08:59:14;2.60;;;1.73;;
44985;SDS011;30721;49.380;7.736;2023-04-15T09:01:40;2.38;;;1.63;;
44985;SDS011;30721;49.380;7.736;2023-04-15T09:04:06;3.05;;;1.60;;
44985;SDS011;30721;49.380;7.736;2023-04-15T09:06:32;3.15;;;1.70;;
44985;SDS011;30721;49.380;7.736;2023-04-15T09:08:57;2.30;;;1.70;;
44985;SDS011;30721;49.380;7.736;2023-04-15T09:11:23;2.97;;;1.38;;
44985;SDS011;30721;49.380;7.736;2023-04-15T09:13:48;1.42;;;1.30;;
44985;SDS011;30721;49.380;7.736;2023-04-15T09:16:14;2.53;;;1.48;;
44985;SDS011;30721;49.380;7.736;2023-04-15T09:18:40;4.93;;;1.40;;
44985;SDS011;30721;49.380;7.736;2023-04-15T09:21:12;2.78;;;1.10;;
44985;SDS011;30721;49.380;7.736;2023-04-15T09:23:40;1.58;;;1.20;;
44985;SDS011;30721;49.380;7.736;2023-04-15T09:26:06;2.63;;;1.27;;
44985;SDS011;30721;49.380;7.736;2023-04-15T09:28:32;2.05;;;1.33;;
44985;SDS011;30721;49.380;7.736;2023-04-15T09:31:00;1.55;;;1.17;;
44985;SDS011;30721;49.380;7.736;2023-04-15T09:33:27;3.35;;;1.13;;
44985;SDS011;30721;49.380;7.736;2023-04-15T09:36:01;2.85;;;1.38;;
44985;SDS011;30721;49.380;7.736;2023-04-15T09:38:27;3.03;;;1.38;;
44985;SDS011;30721;49.380;7.736;2023-04-15T09:40:53;3.08;;;1.25;;
44985;SDS011;30721;49.380;7.736;2023-04-15T09:43:18;2.15;;;1.30;;
44985;SDS011;30721;49.380;7.736;2023-04-15T09:45:51;3.38;;;1.25;;
44985;SDS011;30721;49.380;7.736;2023-04-15T09:48:24;2.25;;;1.10;;
44985;SDS011;30721;49.380;7.736;2023-04-15T09:50:58;3.63;;;1.60;;
44985;SDS011;30721;49.380;7.736;2023-04-15T09:53:24;2.17;;;1.33;;
44985;SDS011;30721;49.380;7.736;2023-04-15T09:58:17;5.10;;;2.05;;
44985;SDS011;30721;49.380;7.736;2023-04-15T10:00:46;3.30;;;1.27;;
44985;SDS011;30721;49.380;7.736;2023-04-15T10:03:20;3.38;;;1.63;;
44985;SDS011;30721;49.380;7.736;2023-04-15T10:05:47;3.22;;;2.08;;
44985;SDS011;30721;49.380;7.736;2023-04-15T10:08:18;3.30;;;1.77;;
44985;SDS011;30721;49.380;7.736;2023-04-15T10:10:44;4.13;;;1.67;;
44985;SDS011;30721;49.380;7.736;2023-04-15T10:13:18;3.10;;;1.45;;
44985;SDS011;30721;49.380;7.736;2023-04-15T10:15:47;2.90;;;1.40;;
44985;SDS011;30721;49.380;7.736;2023-04-15T10:18:15;3.75;;;0.98;;
44985;SDS011;30721;49.380;7.736;2023-04-15T10:20:42;1.90;;;1.65;;
44985;SDS011;30721;49.380;7.736;2023-04-15T10:23:08;3.80;;;1.38;;
44985;SDS011;30721;49.380;7.736;2023-04-15T10:25:33;3.03;;;1.35;;
44985;SDS011;30721;49.380;7.736;2023-04-15T10:27:59;2.28;;;1.23;;
44985;SDS011;30721;49.380;7.736;2023-04-15T10:30:24;3.00;;;1.45;;
44985;SDS011;30721;49.380;7.736;2023-04-15T10:32:50;2.42;;;1.42;;
44985;SDS011;30721;49.380;7.736;2023-04-15T10:35:16;4.03;;;1.80;;
44985;SDS011;30721;49.380;7.736;2023-04-15T10:37:42;3.65;;;1.27;;
44985;SDS011;30721;49.380;7.736;2023-04-15T10:40:29;1.95;;;1.20;;
44985;SDS011;30721;49.380;7.736;2023-04-15T10:42:53;3.72;;;1.52;;
44985;SDS011;30721;49.380;7.736;2023-04-15T10:45:20;3.70;;;1.45;;
44985;SDS011;30721;49.380;7.736;2023-04-15T10:47:50;2.45;;;1.02;;
44985;SDS011;30721;49.380;7.736;2023-04-15T10:50:16;5.05;;;1.20;;
44985;SDS011;30721;49.380;7.736;2023-04-15T10:52:43;1.85;;;1.25;;
44985;SDS011;30721;49.380;7.736;2023-04-15T10:55:15;2.17;;;1.05;;
44985;SDS011;30721;49.380;7.736;2023-04-15T10:57:52;3.75;;;1.30;;
44985;SDS011;30721;49.380;7.736;2023-04-15T11:00:18;1.60;;;1.30;;
44985;SDS011;30721;49.380;7.736;2023-04-15T11:02:53;1.98;;;1.20;;
44985;SDS011;30721;49.380;7.736;2023-04-15T11:08:03;3.53;;;1.48;;
44985;SDS011;30721;49.380;7.736;2023-04-15T11:12:58;4.93;;;1.67;;
44985;SDS011;30721;49.380;7.736;2023-04-15T11:15:32;2.42;;;1.38;;
44985;SDS011;30721;49.380;7.736;2023-04-15T11:18:09;3.42;;;1.50;;
44985;SDS011;30721;49.380;7.736;2023-04-15T11:20:36;3.85;;;1.67;;
44985;SDS011;30721;49.380;7.736;2023-04-15T11:23:03;2.78;;;1.92;;
44985;SDS011;30721;49.380;7.736;2023-04-15T11:25:29;3.33;;;1.83;;
44985;SDS011;30721;49.380;7.736;2023-04-15T11:27:57;3.13;;;1.60;;
44985;SDS011;30721;49.380;7.736;2023-04-15T11:30:24;3.50;;;1.65;;
44985;SDS011;30721;49.380;7.736;2023-04-15T11:32:51;2.70;;;1.60;;
44985;SDS011;30721;49.380;7.736;2023-04-15T11:35:18;4.22;;;1.80;;
44985;SDS011;30721;49.380;7.736;2023-04-15T11:37:44;3.97;;;2.30;;
44985;SDS011;30721;49.380;7.736;2023-04-15T11:40:10;4.95;;;1.60;;
44985;SDS011;30721;49.380;7.736;2023-04-15T11:42:36;2.60;;;1.20;;
44985;SDS011;30721;49.380;7.736;2023-04-15T11:45:14;4.00;;;1.60;;
44985;SDS011;30721;49.380;7.736;2023-04-15T11:47:40;2.25;;;1.60;;
44985;SDS011;30721;49.380;7.736;2023-04-15T11:50:19;3.15;;;1.63;;
44985;SDS011;30721;49.380;7.736;2023-04-15T11:52:55;4.15;;;1.98;;
44985;SDS011;30721;49.380;7.736;2023-04-15T11:55:22;2.10;;;1.20;;
44985;SDS011;30721;49.380;7.736;2023-04-15T12:00:35;2.47;;;1.50;;
44985;SDS011;30721;49.380;7.736;2023-04-15T12:03:13;2.53;;;1.63;;
44985;SDS011;30721;49.380;7.736;2023-04-15T12:11:57;2.92;;;2.08;;
44985;SDS011;30721;49.380;7.736;2023-04-15T12:14:08;2.90;;;2.05;;
44985;SDS011;30721;49.380;7.736;2023-04-15T12:16:41;4.43;;;2.05;;
44985;SDS011;30721;49.380;7.736;2023-04-15T12:19:12;3.70;;;1.88;;
44985;SDS011;30721;49.380;7.736;2023-04-15T12:21:41;3.95;;;1.30;;
44985;SDS011;30721;49.380;7.736;2023-04-15T12:24:09;5.43;;;1.80;;
44985;SDS011;30721;49.380;7.736;2023-04-15T12:29:11;3.90;;;1.58;;
44985;SDS011;30721;49.380;7.736;2023-04-15T12:31:47;2.75;;;1.98;;
44985;SDS011;30721;49.380;7.736;2023-04-15T12:34:13;2.60;;;1.58;;
44985;SDS011;30721;49.380;7.736;2023-04-15T12:36:39;2.60;;;1.23;;
44985;SDS011;30721;49.380;7.736;2023-04-15T12:39:05;4.32;;;1.50;;
44985;SDS011;30721;49.380;7.736;2023-04-15T12:41:31;2.10;;;1.67;;
44985;SDS011;30721;49.380;7.736;2023-04-15T12:43:56;3.40;;;1.33;;
44985;SDS011;30721;49.380;7.736;2023-04-15T12:46:22;3.00;;;1.45;;
44985;SDS011;30721;49.380;7.736;2023-04-15T12:48:47;2.38;;;1.55;;
44985;SDS011;30721;49.380;7.736;2023-04-15T12:51:13;1.70;;;1.60;;
44985;SDS011;30721;49.380;7.736;2023-04-15T12:53:38;1.70;;;1.60;;
44985;SDS011;30721;49.380;7.736;2023-04-15T12:56:04;3.15;;;1.45;;
44985;SDS011;30721;49.380;7.736;2023-04-15T12:58:30;1.63;;;1.52;;
44985;SDS011;30721;49.380;7.736;2023-04-15T13:00:56;1.60;;;1.27;;
44985;SDS011;30721;49.380;7.736;2023-04-15T13:03:21;2.28;;;2.08;;
44985;SDS011;30721;49.380;7.736;2023-04-15T13:05:47;4.72;;;1.73;;
44985;SDS011;30721;49.380;7.736;2023-04-15T13:08:12;3.40;;;1.88;;
44985;SDS011;30721;49.380;7.736;2023-04-15T13:10:37;3.15;;;1.90;;
44985;SDS011;30721;49.380;7.736;2023-04-15T13:13:03;3.53;;;2.08;;
44985;SDS011;30721;49.380;7.736;2023-04-15T13:15:29;2.45;;;1.63;;
44985;SDS011;30721;49.380;7.736;2023-04-15T13:17:54;2.10;;;1.80;;
44985;SDS011;30721;49.380;7.736;2023-04-15T13:20:20;2.40;;;1.90;;
44985;SDS011;30721;49.380;7.736;2023-04-15T13:22:46;2.53;;;1.67;;
44985;SDS011;30721;49.380;7.736;2023-04-15T13:25:11;2.70;;;1.83;;
44985;SDS011;30721;49.380;7.736;2023-04-15T13:27:37;3.00;;;1.80;;
44985;SDS011;30721;49.380;7.736;2023-04-15T13:30:02;2.05;;;1.80;;
44985;SDS011;30721;49.380;7.736;2023-04-15T13:32:29;4.03;;;1.77;;
44985;SDS011;30721;49.380;7.736;2023-04-15T13:34:54;2.75;;;2.10;;
44985;SDS011;30721;49.380;7.736;2023-04-15T13:37:21;3.53;;;1.70;;
44985;SDS011;30721;49.380;7.736;2023-04-15T13:39:50;3.13;;;1.70;;
44985;SDS011;30721;49.380;7.736;2023-04-15T13:42:16;3.67;;;1.40;;
44985;SDS011;30721;49.380;7.736;2023-04-15T13:44:41;1.83;;;1.67;;
44985;SDS011;30721;49.380;7.736;2023-04-15T13:47:06;2.30;;;1.27;;
44985;SDS011;30721;49.380;7.736;2023-04-15T13:49:32;2.00;;;1.30;;
44985;SDS011;30721;49.380;7.736;2023-04-15T13:51:57;2.38;;;1.40;;
44985;SDS011;30721;49.380;7.736;2023-04-15T13:54:22;1.50;;;1.30;;
44985;SDS011;30721;49.380;7.736;2023-04-15T13:56:48;2.05;;;1.23;;
44985;SDS011;30721;49.380;7.736;2023-04-15T13:59:13;1.50;;;1.08;;
44985;SDS011;30721;49.380;7.736;2023-04-15T14:01:38;2.03;;;1.58;;
44985;SDS011;30721;49.380;7.736;2023-04-15T14:04:05;2.15;;;1.20;;
44985;SDS011;30721;49.380;7.736;2023-04-15T14:06:30;2.58;;;1.73;;
44985;SDS011;30721;49.380;7.736;2023-04-15T14:08:56;2.80;;;1.52;;
44985;SDS011;30721;49.380;7.736;2023-04-15T14:11:21;2.35;;;1.50;;
44985;SDS011;30721;49.380;7.736;2023-04-15T14:13:47;1.70;;;1.48;;
44985;SDS011;30721;49.380;7.736;2023-04-15T14:16:12;2.78;;;1.70;;
44985;SDS011;30721;49.380;7.736;2023-04-15T14:18:38;3.97;;;1.75;;
44985;SDS011;30721;49.380;7.736;2023-04-15T14:21:04;1.88;;;1.30;;
44985;SDS011;30721;49.380;7.736;2023-04-15T14:23:30;2.90;;;1.40;;
44985;SDS011;30721;49.380;7.736;2023-04-15T14:25:56;1.55;;;1.23;;
44985;SDS011;30721;49.380;7.736;2023-04-15T14:28:21;1.55;;;1.25;;
44985;SDS011;30721;49.380;7.736;2023-04-15T14:30:48;1.40;;;1.27;;
44985;SDS011;30721;49.380;7.736;2023-04-15T14:33:13;2.55;;;1.30;;
44985;SDS011;30721;49.380;7.736;2023-04-15T14:35:38;1.75;;;1.20;;
44985;SDS011;30721;49.380;7.736;2023-04-15T14:38:04;0.82;;;0.80;;
44985;SDS011;30721;49.380;7.736;2023-04-15T14:40:34;1.33;;;1.00;;
44985;SDS011;30721;49.380;7.736;2023-04-15T14:43:00;1.30;;;1.05;;
44985;SDS011;30721;49.380;7.736;2023-04-15T14:45:26;1.98;;;1.23;;
44985;SDS011;30721;49.380;7.736;2023-04-15T14:47:51;2.05;;;1.08;;
44985;SDS011;30721;49.380;7.736;2023-04-15T14:50:17;1.98;;;1.50;;
44985;SDS011;30721;49.380;7.736;2023-04-15T14:52:43;1.65;;;1.00;;
44985;SDS011;30721;49.380;7.736;2023-04-15T14:55:09;0.85;;;0.80;;
44985;SDS011;30721;49.380;7.736;2023-04-15T14:57:36;0.70;;;0.55;;
44985;SDS011;30721;49.380;7.736;2023-04-15T15:00:02;1.77;;;0.77;;
44985;SDS011;30721;49.380;7.736;2023-04-15T15:02:28;1.08;;;0.88;;